KCOU/COU METAR and TAF weather

Enter ICAO airport designator
Station Type Date Time Source
KCOU METAR 2019/08/22 02:54 UTC NOAA

KCOU 220254Z AUTO 04008KT 10SM BKN060 25/19 A2999 RMK AO2 LTG DSNT SE SLP148 60000 T02500189 53005


Station Type Date Time Source
KCOU Decoded METAR 2019/08/22 02:54 UTC NOAA

Station name not available
Aug 21, 2019 - 10:54 PM EDT / 2019.08.22 0254 UTC
Wind: from the NE (040 degrees) at 9 MPH (8 KT):0
Visibility: 10 mile(s):0
Sky conditions: mostly cloudy
Weather: Lightning observed
Temperature: 77.0 F (25.0 C)
Dew Point: 66.0 F (18.9 C)
Relative Humidity: 68%
Pressure (altimeter): 29.99 in. Hg (1015 hPa)
Pressure tendency: 0.01 inches (0.5 hPa) higher than three hours ago
ob: KCOU 220254Z AUTO 04008KT 10SM BKN060 25/19 A2999 RMK AO2 LTG DSNT SE SLP148 60000 T02500189 53005
cycle: 3

Station Type Date Time Source
KCOU TAF 2019/08/22 03:36 UTC NOAA

TAF
AMD KCOU 220234Z 2203/2224 VRB05KT P6SM VCSH SCT040 BKN150
FM220400 02005KT 5SM -TSRA BKN030CB
TEMPO 2205/2208 2SM TSRA BKN020CB
FM221200 01005KT P6SM VCSH OVC020
FM222100 03006KT P6SM OVC035

Example: see airport list